Time;durP1;ratioP1;P1;durP2;ratioP2;P2;SDS_P1;SDS_P2;PMS_P1;PMS_P2;Temp;Humidity;BMP_temperature;BMP_pressure;BME280_temperature;BME280_humidity;BME280_pressure;Samples;Min_cycle;Max_cycle;Signal;HPM_P1;HPM_P2
2021/08/01 00:01:04;;;;;;;25.03;1.30;;;;;;;18.15;58.67;98211.81;5121599;27;43132;-86
2021/08/01 00:03:34;;;;;;;0.80;0.80;;;;;;;18.06;58.73;98194.00;5134882;27;42443;-85
2021/08/01 00:06:02;;;;;;;0.60;0.60;;;;;;;18.08;58.75;98183.13;5135157;27;39860;-84
2021/08/01 00:08:29;;;;;;;1.17;0.80;;;;;;;18.12;59.78;98182.66;5116545;27;40854;-86
2021/08/01 00:10:58;;;;;;;3.93;0.90;;;;;;;18.16;59.55;98184.03;5114739;27;43215;-85
2021/08/01 00:13:26;;;;;;;0.70;0.70;;;;;;;18.14;59.63;98175.28;5115224;27;41590;-83
2021/08/01 00:15:53;;;;;;;0.70;0.70;;;;;;;18.12;59.55;98188.00;5128859;27;39420;-81
2021/08/01 00:18:21;;;;;;;0.60;0.60;;;;;;;18.11;59.29;98177.44;5125053;27;41687;-85
2021/08/01 00:20:50;;;;;;;0.63;0.63;;;;;;;18.03;59.17;98172.91;5115791;27;41785;-82
2021/08/01 00:23:18;;;;;;;1.23;0.90;;;;;;;18.01;59.19;98171.38;5120588;27;42561;-82
2021/08/01 00:25:45;;;;;;;0.50;0.50;;;;;;;18.09;59.13;98185.63;5135214;27;40323;-84
2021/08/01 00:28:13;;;;;;;1.20;1.10;;;;;;;18.10;59.20;98184.66;5140766;27;41605;-82
2021/08/01 00:30:40;;;;;;;1.33;0.90;;;;;;;18.05;58.99;98184.28;5132147;27;42093;-84
2021/08/01 00:33:08;;;;;;;0.70;0.70;;;;;;;18.04;58.83;98179.09;5134365;27;41567;-83
2021/08/01 00:35:35;;;;;;;0.60;0.60;;;;;;;18.01;58.76;98182.09;5152580;27;40521;-84
2021/08/01 00:38:07;;;;;;;0.50;0.50;;;;;;;18.06;58.78;98193.16;5151658;27;41873;-83
2021/08/01 00:40:34;;;;;;;1.03;0.80;;;;;;;17.93;59.10;98166.78;5135090;27;43019;-84
2021/08/01 00:43:02;;;;;;;0.73;0.67;;;;;;;18.12;59.08;98195.22;5128044;27;41413;-83
2021/08/01 00:45:30;;;;;;;0.70;0.70;;;;;;;18.07;58.96;98190.31;5141254;27;39476;-81
2021/08/01 00:47:58;;;;;;;0.60;0.60;;;;;;;18.02;59.20;98187.28;5146567;27;41526;-86
2021/08/01 00:50:26;;;;;;;1.43;1.33;;;;;;;17.96;59.87;98171.84;5134736;27;42803;-83
2021/08/01 00:52:56;;;;;;;0.70;0.70;;;;;;;18.09;59.74;98193.69;5151714;27;43478;-84
2021/08/01 00:55:26;;;;;;;0.83;0.80;;;;;;;18.03;59.66;98186.28;5124807;27;40135;-81
2021/08/01 00:57:55;;;;;;;0.60;0.60;;;;;;;17.97;59.28;98175.34;5133498;27;40766;-84
2021/08/01 01:00:37;;;;;;;1.13;1.03;;;;;;;18.10;59.39;98190.00;5135311;27;42911;-82
2021/08/01 01:03:13;;;;;;;0.97;0.90;;;;;;;18.08;59.51;98181.28;5151409;27;41457;-83
2021/08/01 01:05:47;;;;;;;0.93;0.70;;;;;;;17.91;59.42;98152.75;5135250;27;38976;-83
2021/08/01 01:08:22;;;;;;;0.60;0.60;;;;;;;17.96;59.74;98163.78;5134052;27;40744;-82
2021/08/01 01:11:17;;;;;;;0.60;0.60;;;;;;;18.03;59.60;98178.25;5133425;27;42793;-82
2021/08/01 01:13:48;;;;;;;0.60;0.60;;;;;;;18.08;59.78;98175.91;5134878;27;41458;-84
2021/08/01 01:16:17;;;;;;;1.67;0.63;;;;;;;18.09;59.45;98185.63;5134281;27;38971;-84
2021/08/01 01:18:49;;;;;;;0.70;0.70;;;;;;;18.04;59.53;98169.22;5151194;27;41763;-83
2021/08/01 01:21:47;;;;;;;0.63;0.63;;;;;;;18.10;59.69;98186.47;5134170;27;43215;-82
2021/08/01 01:24:18;;;;;;;1.60;0.63;;;;;;;18.03;59.44;98172.91;5148945;27;43111;-84
2021/08/01 01:27:12;;;;;;;1.60;1.00;;;;;;;18.05;59.43;98167.38;5130468;27;39113;-82
2021/08/01 01:29:46;;;;;;;0.90;0.90;;;;;;;18.08;59.83;98173.25;5114104;27;40776;-84
2021/08/01 01:32:21;;;;;;;1.67;0.90;;;;;;;17.94;59.54;98152.41;5131027;27;41649;-83
2021/08/01 01:34:57;;;;;;;0.70;0.70;;;;;;;17.99;59.21;98157.28;5127944;27;41467;-83
2021/08/01 01:37:29;;;;;;;0.70;0.70;;;;;;;18.09;59.33;98177.59;5135027;27;38898;-82
2021/08/01 01:39:59;;;;;;;0.70;0.70;;;;;;;18.10;59.27;98175.75;5134018;27;41125;-84
2021/08/01 01:42:46;;;;;;;0.87;0.80;;;;;;;18.07;59.09;98166.19;5151076;27;41986;-81
2021/08/01 01:45:20;;;;;;;0.70;0.70;;;;;;;18.05;59.10;98165.50;5117699;27;42283;-85
2021/08/01 01:47:50;;;;;;;0.80;0.80;;;;;;;18.10;59.15;98173.94;5152272;27;41001;-83
2021/08/01 01:50:21;;;;;;;0.70;0.70;;;;;;;18.08;59.00;98173.25;5151873;27;41811;-82
2021/08/01 01:52:53;;;;;;;1.07;0.83;;;;;;;17.95;59.10;98151.41;5133624;27;41882;-81
2021/08/01 01:55:23;;;;;;;0.73;0.73;;;;;;;18.02;59.24;98160.50;5150291;27;41591;-82
2021/08/01 01:57:53;;;;;;;0.43;0.40;;;;;;;18.03;59.20;98161.34;5132953;27;40235;-84
2021/08/01 02:00:22;;;;;;;0.53;0.53;;;;;;;18.11;59.47;98170.25;5134194;27;40779;-84
2021/08/01 02:03:03;;;;;;;0.60;0.60;;;;;;;18.02;59.72;98155.13;5133524;27;42673;-85
2021/08/01 02:05:49;;;;;;;0.80;0.80;;;;;;;18.04;59.72;98163.84;5151097;27;41574;-82
2021/08/01 02:08:50;;;;;;;1.30;1.20;;;;;;;18.03;59.92;98159.50;5150581;27;39325;-82
2021/08/01 02:11:47;;;;;;;1.43;0.90;;;;;;;17.99;59.91;98155.44;5146827;27;42043;-83
2021/08/01 02:14:29;;;;;;;1.23;0.90;;;;;;;18.07;60.08;98162.69;5151107;27;42833;-85
2021/08/01 02:17:06;;;;;;;0.90;0.90;;;;;;;17.94;60.34;98141.69;5133445;27;42624;-82
2021/08/01 02:19:40;;;;;;;0.60;0.60;;;;;;;17.89;59.94;98135.97;5151783;27;40034;-82
2021/08/01 02:22:12;;;;;;;0.70;0.63;;;;;;;18.08;59.74;98167.03;5133590;27;40739;-82
2021/08/01 02:24:43;;;;;;;0.70;0.70;;;;;;;17.98;60.29;98147.56;5131889;27;42101;-81
2021/08/01 02:27:12;;;;;;;0.70;0.70;;;;;;;17.91;59.75;98145.53;5133589;27;41253;-82
2021/08/01 02:29:40;;;;;;;0.77;0.77;;;;;;;18.07;60.26;98174.22;5151102;27;39598;-81
2021/08/01 02:32:09;;;;;;;0.90;0.90;;;;;;;17.98;60.36;98155.59;5150310;27;41706;-82
2021/08/01 02:34:40;;;;;;;0.83;0.83;;;;;;;17.95;60.70;98154.06;5133266;27;41709;-85
2021/08/01 02:37:13;;;;;;;1.23;1.00;;;;;;;18.00;60.85;98164.31;5150379;27;41360;-82
2021/08/01 02:39:43;;;;;;;0.87;0.70;;;;;;;17.87;60.82;98154.03;5133649;27;39802;-85
2021/08/01 02:42:13;;;;;;;1.33;1.20;;;;;;;17.81;61.19;98151.97;5134028;27;40555;-83
2021/08/01 02:44:41;;;;;;;0.60;0.60;;;;;;;17.89;61.07;98160.09;5150042;27;43075;-85
2021/08/01 02:47:11;;;;;;;1.00;0.80;;;;;;;17.83;61.44;98160.69;5132578;27;41301;-83
2021/08/01 02:49:44;;;;;;;1.20;1.10;;;;;;;17.81;61.84;98163.53;5133260;27;38955;-86
2021/08/01 02:52:16;;;;;;;1.47;1.23;;;;;;;17.75;62.02;98158.00;5132679;27;40688;-82
2021/08/01 02:54:50;;;;;;;0.87;0.87;;;;;;;17.67;62.07;98147.22;5150789;27;42925;-82
2021/08/01 02:57:19;;;;;;;1.13;1.03;;;;;;;17.60;62.58;98145.13;5132100;27;42518;-82
2021/08/01 02:59:48;;;;;;;1.07;0.97;;;;;;;17.60;63.15;98155.84;5150927;27;40684;-85
2021/08/01 03:02:17;;;;;;;1.33;0.90;;;;;;;17.57;63.30;98160.66;5128615;27;40869;-84
2021/08/01 03:04:53;;;;;;;0.80;0.80;;;;;;;17.53;63.76;98160.16;5112955;27;41740;-85
2021/08/01 03:07:21;;;;;;;1.37;1.27;;;;;;;17.39;64.11;98142.00;5111845;27;41345;-82
2021/08/01 03:09:54;;;;;;;0.73;0.73;;;;;;;17.45;64.16;98146.69;5111932;27;39363;-85
2021/08/01 03:12:22;;;;;;;0.67;0.60;;;;;;;17.44;65.09;98154.88;5131403;27;41791;-84
2021/08/01 03:14:50;;;;;;;0.80;0.50;;;;;;;17.33;64.76;98137.25;5132733;27;41661;-85
2021/08/01 03:17:18;;;;;;;2.47;1.10;;;;;;;17.42;64.95;98159.56;5132215;27;41547;-82
2021/08/01 03:19:46;;;;;;;0.73;0.73;;;;;;;17.42;64.78;98157.75;5133018;27;39904;-84
2021/08/01 03:22:15;;;;;;;0.60;0.60;;;;;;;17.40;65.09;98158.88;5132977;27;40711;-84
2021/08/01 03:24:43;;;;;;;0.90;0.90;;;;;;;17.40;65.28;98159.72;5149836;27;42500;-81
2021/08/01 03:27:17;;;;;;;0.70;0.70;;;;;;;17.33;64.98;98158.66;5132126;27;41300;-83
2021/08/01 03:29:46;;;;;;;0.90;0.53;;;;;;;17.31;65.31;98155.28;5151524;27;42549;-84
2021/08/01 03:32:20;;;;;;;0.73;0.60;;;;;;;17.34;65.45;98165.69;5133505;27;41890;-82
2021/08/01 03:34:50;;;;;;;1.17;1.07;;;;;;;17.24;65.38;98146.22;5133027;27;41877;-85
2021/08/01 03:37:26;;;;;;;0.93;0.90;;;;;;;17.22;65.76;98151.72;5132474;27;42239;-82
2021/08/01 03:40:17;;;;;;;0.43;0.43;;;;;;;17.29;65.65;98168.00;5111535;27;39275;-84
2021/08/01 03:42:47;;;;;;;1.30;1.20;;;;;;;17.21;66.00;98160.72;5150366;27;41072;-82
2021/08/01 03:45:15;;;;;;;1.10;0.90;;;;;;;17.10;65.92;98149.44;5132498;27;42712;-83
2021/08/01 03:47:42;;;;;;;1.13;1.03;;;;;;;17.09;65.90;98147.75;5132568;27;41523;-82
2021/08/01 03:50:10;;;;;;;2.60;1.07;;;;;;;17.01;66.59;98137.00;5132109;27;40157;-83
2021/08/01 03:52:38;;;;;;;1.43;1.20;;;;;;;17.07;66.92;98142.53;5132208;27;41544;-82
2021/08/01 03:55:06;;;;;;;0.60;0.60;;;;;;;17.09;66.96;98145.06;5132063;27;42011;-83
2021/08/01 03:57:34;;;;;;;1.30;1.10;;;;;;;17.07;67.44;98147.91;5149017;27;42006;-83
2021/08/01 04:00:04;;;;;;;0.80;0.60;;;;;;;17.08;67.67;98146.06;5150206;27;38899;-83
2021/08/01 04:02:40;;;;;;;0.83;0.83;;;;;;;17.07;67.52;98147.06;5149450;27;41723;-84
2021/08/01 04:05:09;;;;;;;0.73;0.73;;;;;;;17.09;67.55;98155.78;5132571;27;41839;-83
2021/08/01 04:07:37;;;;;;;0.73;0.73;;;;;;;17.14;67.54;98159.69;5131906;27;41484;-83
2021/08/01 04:10:06;;;;;;;0.90;0.90;;;;;;;17.10;67.37;98152.94;5131391;27;39172;-83
2021/08/01 04:12:33;;;;;;;0.60;0.60;;;;;;;17.10;67.60;98154.78;5149128;27;41203;-84
2021/08/01 04:15:03;;;;;;;0.97;0.80;;;;;;;17.10;68.22;98157.47;5149819;27;43773;-83
2021/08/01 04:17:35;;;;;;;0.90;0.90;;;;;;;17.16;68.10;98156.84;5131648;27;41303;-83
2021/08/01 04:20:03;;;;;;;0.90;0.73;;;;;;;17.15;68.15;98161.38;5135389;27;40089;-82
2021/08/01 04:22:30;;;;;;;1.30;1.03;;;;;;;17.14;68.07;98157.00;5152784;27;41917;-84
2021/08/01 04:24:58;;;;;;;1.20;1.10;;;;;;;17.17;68.21;98163.91;5135409;27;42685;-83
2021/08/01 04:27:25;;;;;;;1.00;0.80;;;;;;;17.08;68.07;98151.41;5134925;27;41047;-84
2021/08/01 04:29:53;;;;;;;1.27;1.00;;;;;;;17.09;68.50;98151.25;5134847;27;39089;-84
2021/08/01 04:32:22;;;;;;;1.47;1.37;;;;;;;17.10;68.62;98162.81;5135953;27;42026;-83
2021/08/01 04:34:49;;;;;;;1.07;0.80;;;;;;;17.06;68.41;98156.91;5152301;27;42646;-83
2021/08/01 04:37:17;;;;;;;1.10;0.90;;;;;;;17.08;68.26;98159.44;5134702;27;41528;-84
2021/08/01 04:39:45;;;;;;;1.03;0.93;;;;;;;16.97;68.72;98141.78;5135723;27;39203;-83
2021/08/01 04:42:12;;;;;;;1.17;0.90;;;;;;;17.16;68.67;98172.91;5154085;27;41413;-85
2021/08/01 04:44:40;;;;;;;2.20;1.20;;;;;;;17.00;69.43;98141.50;5153224;27;42651;-83
2021/08/01 04:47:08;;;;;;;1.13;1.03;;;;;;;17.08;69.29;98159.44;5134739;27;41168;-84
2021/08/01 04:49:37;;;;;;;0.97;0.97;;;;;;;17.07;69.70;98166.63;5135566;27;39418;-84
2021/08/01 04:52:05;;;;;;;1.53;1.30;;;;;;;17.16;69.63;98179.09;5151827;27;41976;-83
2021/08/01 04:54:36;;;;;;;0.93;0.93;;;;;;;17.20;69.57;98184.97;5152194;27;43222;-81
2021/08/01 04:57:04;;;;;;;1.33;1.23;;;;;;;17.19;69.86;98172.59;5134911;27;41324;-83
2021/08/01 04:59:34;;;;;;;1.10;1.10;;;;;;;17.13;69.65;98168.69;5135443;27;38982;-84
2021/08/01 05:02:02;;;;;;;1.10;0.97;;;;;;;17.23;69.75;98179.31;5134752;27;40725;-81
2021/08/01 05:04:29;;;;;;;1.33;1.23;;;;;;;17.07;70.17;98163.09;5150959;27;42023;-82
2021/08/01 05:06:58;;;;;;;1.30;1.00;;;;;;;17.18;70.75;98168.25;5152160;27;42702;-82
2021/08/01 05:09:26;;;;;;;1.10;1.00;;;;;;;17.30;71.16;98191.09;5135587;27;39961;-84
2021/08/01 05:11:53;;;;;;;1.03;0.90;;;;;;;17.30;70.88;98195.63;5134199;27;42089;-84
2021/08/01 05:14:21;;;;;;;1.30;1.20;;;;;;;17.20;71.55;98175.09;5135762;27;43093;-85
2021/08/01 05:16:48;;;;;;;1.07;0.90;;;;;;;17.28;72.05;98185.06;5154100;27;41205;-83
2021/08/01 05:19:16;;;;;;;0.97;0.97;;;;;;;17.32;71.97;98202.47;5153946;27;38975;-83
2021/08/01 05:21:44;;;;;;;1.00;0.73;;;;;;;17.31;72.07;98208.81;5152889;27;42786;-81
2021/08/01 05:24:13;;;;;;;1.10;0.90;;;;;;;17.27;72.19;98201.25;5135244;27;41760;-84
2021/08/01 05:26:41;;;;;;;1.00;1.00;;;;;;;17.24;72.25;98200.56;5153186;27;43328;-82
2021/08/01 05:29:08;;;;;;;0.77;0.70;;;;;;;17.34;71.66;98213.88;5149683;27;39378;-83
2021/08/01 05:31:36;;;;;;;1.40;1.00;;;;;;;17.18;71.57;98177.09;5133874;27;40785;-83
2021/08/01 05:34:03;;;;;;;1.90;1.53;;;;;;;17.35;72.76;98204.00;5133756;27;43242;-81
2021/08/01 05:36:31;;;;;;;1.83;1.73;;;;;;;17.22;72.34;98181.16;5134076;27;41605;-81
2021/08/01 05:38:59;;;;;;;1.07;0.97;;;;;;;17.38;72.51;98204.53;5133708;27;38827;-84
2021/08/01 05:41:28;;;;;;;1.00;1.00;;;;;;;17.34;72.55;98192.44;5134669;27;41649;-81
2021/08/01 05:43:55;;;;;;;1.40;0.97;;;;;;;17.39;73.00;98203.56;5133818;27;42285;-81
2021/08/01 05:46:23;;;;;;;1.00;0.80;;;;;;;17.42;73.33;98189.88;5134376;27;42475;-83
2021/08/01 05:48:50;;;;;;;0.93;0.77;;;;;;;17.39;73.15;98192.84;5151225;27;40045;-84
2021/08/01 05:51:20;;;;;;;1.17;1.10;;;;;;;17.43;73.43;98209.44;5150771;27;41839;-82
2021/08/01 05:53:47;;;;;;;1.13;1.03;;;;;;;17.35;73.48;98202.16;5151542;27;42772;-81
2021/08/01 05:56:15;;;;;;;1.40;1.30;;;;;;;17.38;73.14;98193.00;5132518;27;41421;-82
2021/08/01 05:58:44;;;;;;;1.30;1.20;;;;;;;17.15;73.30;98165.88;5151902;27;40971;-86
2021/08/01 06:01:13;;;;;;;1.17;1.10;;;;;;;17.46;72.83;98217.97;5134132;27;40656;-83
2021/08/01 06:03:41;;;;;;;1.00;0.70;;;;;;;17.47;72.83;98203.59;5133681;27;41797;-84
2021/08/01 06:06:11;;;;;;;1.03;0.93;;;;;;;17.58;72.48;98221.25;5132535;27;41506;-83
2021/08/01 06:08:39;;;;;;;1.03;0.93;;;;;;;17.65;72.20;98216.16;5150701;27;39958;-85
2021/08/01 06:11:07;;;;;;;0.60;0.60;;;;;;;17.71;72.43;98211.00;5151286;27;40886;-83
2021/08/01 06:13:35;;;;;;;3.67;1.00;;;;;;;17.79;72.31;98212.94;5132825;27;42680;-84
2021/08/01 06:16:06;;;;;;;1.03;0.93;;;;;;;17.82;72.51;98216.13;5133176;27;41158;-85
2021/08/01 06:18:34;;;;;;;0.77;0.77;;;;;;;17.82;72.15;98212.59;5132930;27;40511;-84
2021/08/01 06:21:06;;;;;;;0.80;0.80;;;;;;;17.79;72.13;98210.25;5132759;27;41765;-85
2021/08/01 06:23:34;;;;;;;0.60;0.60;;;;;;;17.79;71.82;98218.28;5132969;27;41668;-81
2021/08/01 06:26:02;;;;;;;0.67;0.67;;;;;;;17.74;72.54;98197.31;5133956;27;41178;-87
2021/08/01 06:28:31;;;;;;;0.83;0.60;;;;;;;17.90;72.32;98220.72;5150392;27;39921;-85
2021/08/01 06:31:01;;;;;;;0.80;0.80;;;;;;;17.84;72.33;98211.44;5152321;27;43475;-85
2021/08/01 06:33:31;;;;;;;0.93;0.93;;;;;;;17.66;71.80;98175.84;5132208;27;41884;-85
2021/08/01 06:35:58;;;;;;;0.60;0.60;;;;;;;17.68;71.86;98173.03;5133122;27;42358;-81
2021/08/01 06:38:26;;;;;;;0.77;0.60;;;;;;;18.05;71.91;98224.47;5133976;27;38991;-84
2021/08/01 06:40:54;;;;;;;0.93;0.90;;;;;;;18.03;72.27;98213.09;5151386;27;42831;-86
2021/08/01 06:43:21;;;;;;;0.60;0.60;;;;;;;17.98;72.02;98206.50;5134513;27;41774;-83
2021/08/01 06:45:49;;;;;;;0.80;0.73;;;;;;;18.10;71.74;98221.31;5135425;27;41455;-88
2021/08/01 06:48:17;;;;;;;0.83;0.83;;;;;;;18.20;71.60;98232.75;5133594;27;39861;-85
2021/08/01 06:50:46;;;;;;;0.80;0.80;;;;;;;18.16;71.73;98236.78;5132586;27;42242;-87
2021/08/01 06:53:15;;;;;;;0.83;0.83;;;;;;;18.19;72.16;98242.63;5131993;27;42851;-84
2021/08/01 06:55:42;;;;;;;1.97;1.07;;;;;;;18.09;71.98;98209.75;5112446;27;42746;-85
2021/08/01 06:58:10;;;;;;;0.77;0.77;;;;;;;18.28;71.75;98216.75;5111767;27;39870;-85
2021/08/01 07:00:37;;;;;;;1.43;1.07;;;;;;;18.23;71.55;98211.84;5129480;27;41892;-83
2021/08/01 07:03:05;;;;;;;0.80;0.80;;;;;;;18.36;71.29;98232.00;5132931;27;41779;-85
2021/08/01 07:05:33;;;;;;;0.77;0.77;;;;;;;18.48;70.72;98246.81;5132525;27;41256;-81
2021/08/01 07:08:01;;;;;;;0.90;0.90;;;;;;;18.48;70.50;98261.06;5131856;27;39456;-83
2021/08/01 07:10:29;;;;;;;2.93;1.83;;;;;;;18.50;70.59;98258.22;5149682;27;41601;-84
2021/08/01 07:13:01;;;;;;;1.37;1.00;;;;;;;18.46;70.56;98249.66;5150252;27;43801;-85
2021/08/01 07:15:37;;;;;;;0.80;0.80;;;;;;;18.39;70.11;98237.91;5149602;27;42108;-83
2021/08/01 07:18:05;;;;;;;0.70;0.70;;;;;;;18.46;70.06;98249.66;5149350;27;38947;-83
2021/08/01 07:20:34;;;;;;;0.70;0.70;;;;;;;18.48;70.34;98254.88;5150551;27;41903;-83
2021/08/01 07:23:06;;;;;;;0.97;0.90;;;;;;;18.54;70.34;98273.00;5150270;27;43209;-85
2021/08/01 07:25:33;;;;;;;0.80;0.80;;;;;;;18.47;70.18;98255.84;5132642;27;41600;-84
2021/08/01 07:28:02;;;;;;;0.73;0.73;;;;;;;18.52;70.18;98248.19;5133078;27;39069;-88
2021/08/01 07:30:31;;;;;;;1.10;0.80;;;;;;;18.69;70.23;98244.59;5132975;27;40961;-86
2021/08/01 07:32:59;;;;;;;0.63;0.63;;;;;;;18.89;70.17;98253.22;5131783;27;42651;-88
2021/08/01 07:35:27;;;;;;;0.90;0.90;;;;;;;19.05;70.17;98233.63;5133051;27;41067;-86
2021/08/01 07:37:54;;;;;;;1.10;0.97;;;;;;;19.32;69.88;98246.78;5148972;27;41985;-85
2021/08/01 07:40:24;;;;;;;0.80;0.80;;;;;;;19.46;69.13;98259.53;5144151;27;40627;-82
2021/08/01 07:42:52;;;;;;;0.77;0.77;;;;;;;19.46;69.19;98246.13;5122456;27;41695;-83
2021/08/01 07:45:25;;;;;;;1.20;1.10;;;;;;;19.46;69.04;98226.47;5146258;27;41716;-82
2021/08/01 07:47:52;;;;;;;1.30;1.20;;;;;;;19.67;69.13;98262.59;5150002;27;39753;-81
2021/08/01 07:50:20;;;;;;;1.50;1.40;;;;;;;19.62;68.59;98243.47;5130831;27;40739;-80
2021/08/01 07:52:47;;;;;;;1.03;1.03;;;;;;;19.83;68.51;98264.47;5131867;27;42067;-82
2021/08/01 07:55:15;;;;;;;1.07;0.83;;;;;;;19.79;67.79;98255.03;5134787;27;42448;-80
2021/08/01 07:57:45;;;;;;;0.87;0.87;;;;;;;19.76;67.78;98239.28;5152903;27;39843;-80
2021/08/01 08:00:14;;;;;;;1.33;1.23;;;;;;;20.05;67.25;98260.22;5152146;27;40584;-78
2021/08/01 08:02:45;;;;;;;0.73;0.73;;;;;;;20.19;66.68;98261.38;5134372;27;43152;-80
2021/08/01 08:05:14;;;;;;;1.10;1.00;;;;;;;20.47;66.45;98280.69;5131392;27;41466;-80
2021/08/01 08:07:41;;;;;;;1.20;0.97;;;;;;;20.67;66.16;98265.81;5132779;27;40034;-79
2021/08/01 08:10:11;;;;;;;1.10;1.00;;;;;;;21.04;65.08;98263.28;5132118;27;41943;-81
2021/08/01 08:12:39;;;;;;;1.53;1.03;;;;;;;21.34;64.20;98274.28;5131330;27;43019;-80
2021/08/01 08:15:09;;;;;;;1.27;1.27;;;;;;;21.53;63.69;98268.41;5153473;27;43090;-78
2021/08/01 08:17:37;;;;;;;1.03;0.93;;;;;;;21.54;63.31;98264.69;5152377;27;39660;-78
2021/08/01 08:20:08;;;;;;;0.80;0.80;;;;;;;21.49;63.94;98240.16;5134845;27;41520;-80
2021/08/01 08:22:36;;;;;;;1.73;1.63;;;;;;;21.62;63.51;98253.03;5150867;27;42568;-81
2021/08/01 08:25:06;;;;;;;0.90;0.90;;;;;;;21.62;62.91;98253.03;5134256;27;41495;-80
2021/08/01 08:27:34;;;;;;;1.33;1.20;;;;;;;21.56;63.69;98224.94;5152671;27;41403;-81
2021/08/01 08:30:01;;;;;;;1.60;1.23;;;;;;;21.84;63.07;98266.50;5134904;27;42103;-78
2021/08/01 08:32:33;;;;;;;1.00;0.87;;;;;;;22.15;62.37;98255.59;5153138;27;42944;-81
2021/08/01 08:35:01;;;;;;;0.63;0.63;;;;;;;22.66;61.81;98249.50;5151801;27;41423;-80
2021/08/01 08:37:28;;;;;;;0.87;0.87;;;;;;;23.59;60.80;98257.72;5134527;27;38905;-81
2021/08/01 08:39:56;;;;;;;1.00;0.73;;;;;;;25.15;56.76;98277.16;5150917;27;42091;-81
2021/08/01 08:42:25;;;;;;;1.17;1.07;;;;;;;26.44;50.46;98299.56;5134598;27;41855;-80
2021/08/01 08:44:52;;;;;;;0.80;0.80;;;;;;;27.09;49.69;98314.03;5150340;27;43369;-79
2021/08/01 08:47:20;;;;;;;0.80;0.80;;;;;;;27.10;48.95;98294.81;5134442;27;39147;-81
2021/08/01 08:49:51;;;;;;;1.23;0.90;;;;;;;26.95;49.83;98302.41;5151721;27;42482;-80
2021/08/01 08:52:19;;;;;;;0.80;0.80;;;;;;;26.36;49.79;98302.47;5133714;27;43032;-79
2021/08/01 08:54:48;;;;;;;0.87;0.87;;;;;;;25.87;51.21;98291.97;5134743;27;41184;-80
2021/08/01 08:57:24;;;;;;;1.40;1.20;;;;;;;25.54;50.87;98286.47;5152107;27;39883;-84
2021/08/01 09:00:01;;;;;;;1.20;0.83;;;;;;;25.38;52.36;98277.66;5154165;27;42118;-83
2021/08/01 09:02:29;;;;;;;0.70;0.70;;;;;;;25.32;51.55;98264.09;5149980;27;42672;-83
2021/08/01 09:04:58;;;;;;;1.10;1.00;;;;;;;25.51;51.49;98282.28;5177967;27;43980;-82
2021/08/01 09:07:26;;;;;;;0.80;0.80;;;;;;;25.73;51.10;98277.56;5160795;27;40134;-82
2021/08/01 09:09:55;;;;;;;1.07;0.83;;;;;;;25.96;50.85;98264.47;5159126;27;40871;-84
2021/08/01 09:12:23;;;;;;;1.77;1.47;;;;;;;26.36;51.32;98276.16;5177650;27;44236;-84
2021/08/01 09:15:09;;;;;;;0.90;0.90;;;;;;;26.50;49.43;98282.41;5177785;27;42178;-85
2021/08/01 09:17:41;;;;;;;0.93;0.90;;;;;;;26.94;49.63;98279.00;5160285;27;40825;-84
2021/08/01 09:20:19;;;;;;;0.77;0.77;;;;;;;27.43;47.53;98293.84;5169534;27;44639;-82
2021/08/01 09:23:08;;;;;;;0.67;0.67;;;;;;;27.41;48.05;98295.94;5143476;27;41989;-83
2021/08/01 09:25:37;;;;;;;0.80;0.80;;;;;;;27.28;47.94;98301.44;5146352;27;41648;-83
2021/08/01 09:28:11;;;;;;;0.90;0.90;;;;;;;27.07;48.31;98300.69;5162201;27;38762;-84
2021/08/01 09:30:47;;;;;;;0.90;0.90;;;;;;;26.89;47.29;98286.06;5144799;27;40418;-84
2021/08/01 09:33:20;;;;;;;1.00;0.93;;;;;;;27.68;46.36;98313.00;5162683;27;42832;-82
2021/08/01 09:36:05;;;;;;;1.23;1.00;;;;;;;28.49;44.63;98323.94;5161060;27;42062;-87
2021/08/01 09:38:44;;;;;;;0.60;0.60;;;;;;;28.70;44.92;98307.16;5151634;27;40188;-84
2021/08/01 09:41:12;;;;;;;0.80;0.80;;;;;;;28.55;43.63;98325.78;5151532;27;40638;-82
2021/08/01 09:43:48;;;;;;;1.43;1.10;;;;;;;28.40;44.68;98306.19;5152671;27;43091;-84
2021/08/01 09:46:16;;;;;;;1.10;1.00;;;;;;;28.03;43.02;98321.56;5152126;27;43199;-84
2021/08/01 09:48:44;;;;;;;1.67;1.50;;;;;;;27.75;44.36;98330.09;5151236;27;38907;-84
2021/08/01 09:51:15;;;;;;;0.83;0.83;;;;;;;27.33;45.80;98309.75;5150722;27;41026;-87
2021/08/01 09:53:43;;;;;;;1.00;0.93;;;;;;;27.57;45.16;98316.41;5152737;27;43643;-86
2021/08/01 09:56:18;;;;;;;2.40;1.20;;;;;;;28.21;45.58;98287.06;5150947;27;42260;-86
2021/08/01 09:58:48;;;;;;;0.93;0.80;;;;;;;28.67;43.72;98304.91;5151993;27;39900;-83
2021/08/01 10:01:16;;;;;;;0.97;0.87;;;;;;;28.57;43.25;98301.84;5150763;27;41888;-82
2021/08/01 10:03:45;;;;;;;0.83;0.77;;;;;;;28.40;43.56;98298.03;5153616;27;43006;-83
2021/08/01 10:06:17;;;;;;;0.73;0.73;;;;;;;28.20;43.63;98312.63;5153527;27;42531;-87
2021/08/01 10:08:46;;;;;;;0.87;0.83;;;;;;;27.80;43.58;98294.91;5150948;27;39995;-84
2021/08/01 10:11:16;;;;;;;0.90;0.87;;;;;;;27.82;43.18;98309.94;5150564;27;40545;-83
2021/08/01 10:13:46;;;;;;;0.70;0.70;;;;;;;28.07;43.76;98314.59;5133732;27;41669;-85
2021/08/01 10:16:15;;;;;;;0.90;0.87;;;;;;;28.19;43.96;98272.84;5151618;27;43389;-83
2021/08/01 10:18:44;;;;;;;0.60;0.60;;;;;;;28.56;44.23;98289.28;5133174;27;39649;-86
2021/08/01 10:21:17;;;;;;;2.90;1.10;;;;;;;28.70;42.68;98296.25;5133712;27;40801;-87
2021/08/01 10:23:48;;;;;;;0.90;0.90;;;;;;;28.77;41.54;98315.28;5132957;27;42015;-81
2021/08/01 10:26:18;;;;;;;0.90;0.87;;;;;;;29.19;40.65;98319.03;5132912;27;41541;-84
2021/08/01 10:28:51;;;;;;;1.10;1.00;;;;;;;29.64;40.23;98320.38;5151992;27;40367;-85
2021/08/01 10:31:26;;;;;;;0.97;0.93;;;;;;;29.82;40.07;98314.00;5150891;27;42019;-85
2021/08/01 10:34:00;;;;;;;0.87;0.80;;;;;;;29.84;39.40;98313.78;5150545;27;42187;-81
2021/08/01 10:36:32;;;;;;;0.80;0.80;;;;;;;29.78;39.67;98309.28;5152174;27;42603;-85
2021/08/01 10:39:12;;;;;;;1.20;1.10;;;;;;;29.57;38.37;98286.03;5150010;27;38837;-84
2021/08/01 10:41:40;;;;;;;1.20;1.20;;;;;;;29.72;39.17;98312.91;5150685;27;41966;-83
2021/08/01 10:44:11;;;;;;;0.80;0.80;;;;;;;29.53;39.63;98293.03;5132685;27;42672;-84
2021/08/01 10:46:42;;;;;;;0.73;0.73;;;;;;;29.67;38.97;98318.25;5150616;27;42462;-82
2021/08/01 10:49:13;;;;;;;1.20;1.10;;;;;;;29.44;38.33;98317.06;5132553;27;38918;-84
2021/08/01 10:51:43;;;;;;;0.77;0.77;;;;;;;29.46;38.84;98306.75;5133137;27;41099;-83
2021/08/01 10:54:32;;;;;;;1.07;1.00;;;;;;;29.48;38.73;98299.16;5150806;27;42647;-83
2021/08/01 10:57:18;;;;;;;1.97;0.97;;;;;;;29.36;38.88;98290.06;5132911;27;41288;-84
2021/08/01 11:00:09;;;;;;;0.90;0.90;;;;;;;29.16;39.85;98275.88;5151115;27;40927;-85
2021/08/01 11:02:38;;;;;;;0.63;0.63;;;;;;;29.22;41.65;98277.66;5152214;27;42531;-83
2021/08/01 11:05:38;;;;;;;1.90;1.10;;;;;;;29.38;40.74;98276.22;5150584;27;42869;-83
2021/08/01 11:08:08;;;;;;;1.20;1.13;;;;;;;29.50;39.96;98279.84;5150884;27;43029;-84
2021/08/01 11:10:37;;;;;;;0.90;0.90;;;;;;;29.30;39.57;98266.47;5150783;27;40008;-83
2021/08/01 11:13:41;;;;;;;0.53;0.53;;;;;;;29.45;40.92;98277.78;5150720;27;42131;-84
2021/08/01 11:16:10;;;;;;;1.10;1.07;;;;;;;29.60;39.75;98263.75;5149631;27;43625;-84
2021/08/01 11:18:40;;;;;;;0.90;0.90;;;;;;;30.02;40.91;98250.97;5149710;27;41001;-82
2021/08/01 11:21:10;;;;;;;0.70;0.70;;;;;;;30.44;38.95;98264.50;5149754;27;40966;-84
2021/08/01 11:24:12;;;;;;;0.70;0.60;;;;;;;30.59;36.16;98295.81;5150028;27;41791;-83
2021/08/01 11:27:08;;;;;;;0.50;0.50;;;;;;;31.04;36.63;98292.41;5149621;27;42678;-85
2021/08/01 11:30:03;;;;;;;0.70;0.70;;;;;;;31.40;34.88;98294.84;5142124;27;42389;-82
2021/08/01 11:32:51;;;;;;;0.70;0.70;;;;;;;31.78;35.07;98288.75;5154036;27;41003;-83
2021/08/01 11:35:19;;;;;;;0.90;0.90;;;;;;;32.08;33.81;98290.41;5154055;27;41722;-85
2021/08/01 11:37:47;;;;;;;0.70;0.70;;;;;;;32.36;33.32;98298.59;5154477;27;43091;-85
2021/08/01 11:40:17;;;;;;;0.60;0.60;;;;;;;32.50;33.10;98290.84;5153772;27;42531;-82
2021/08/01 11:43:05;;;;;;;0.67;0.67;;;;;;;32.41;32.54;98282.19;5153312;27;40983;-83
2021/08/01 11:45:58;;;;;;;0.70;0.70;;;;;;;32.40;33.12;98296.97;5153465;27;40784;-83
2021/08/01 11:48:26;;;;;;;0.57;0.57;;;;;;;31.96;31.32;98286.91;5154027;27;42931;-82
2021/08/01 11:50:57;;;;;;;0.50;0.50;;;;;;;31.78;32.06;98288.75;5135172;27;41232;-83
2021/08/01 11:53:26;;;;;;;0.63;0.63;;;;;;;31.51;32.30;98304.13;5136125;27;40262;-83